sensor_id;sensor_type;location;lat;lon;timestamp;P1;P2;P0
73631;PMS5003;61924;53.268;-2.458;2023-02-07T00:02:14;14;13;
73631;PMS5003;61924;53.268;-2.458;2023-02-07T00:04:40;15;13;
73631;PMS5003;61924;53.268;-2.458;2023-02-07T00:07:06;15;14;
73631;PMS5003;61924;53.268;-2.458;2023-02-07T00:09:32;11;11;
73631;PMS5003;61924;53.268;-2.458;2023-02-07T00:11:57;13;12;
73631;PMS5003;61924;53.268;-2.458;2023-02-07T00:14:22;12;10;
73631;PMS5003;61924;53.268;-2.458;2023-02-07T00:16:48;13;12;
73631;PMS5003;61924;53.268;-2.458;2023-02-07T00:19:13;11;11;
73631;PMS5003;61924;53.268;-2.458;2023-02-07T00:21:38;11;10;
73631;PMS5003;61924;53.268;-2.458;2023-02-07T00:24:04;11;11;
73631;PMS5003;61924;53.268;-2.458;2023-02-07T00:26:29;9;8;
73631;PMS5003;61924;53.268;-2.458;2023-02-07T00:28:54;11;11;
73631;PMS5003;61924;53.268;-2.458;2023-02-07T00:31:20;11;10;
73631;PMS5003;61924;53.268;-2.458;2023-02-07T00:33:45;10;9;
73631;PMS5003;61924;53.268;-2.458;2023-02-07T00:36:11;11;11;
73631;PMS5003;61924;53.268;-2.458;2023-02-07T00:38:36;8;8;
73631;PMS5003;61924;53.268;-2.458;2023-02-07T00:41:01;12;12;
73631;PMS5003;61924;53.268;-2.458;2023-02-07T00:43:27;10;10;
73631;PMS5003;61924;53.268;-2.458;2023-02-07T00:45:52;12;11;
73631;PMS5003;61924;53.268;-2.458;2023-02-07T00:48:17;11;11;
73631;PMS5003;61924;53.268;-2.458;2023-02-07T00:50:42;10;10;
73631;PMS5003;61924;53.268;-2.458;2023-02-07T00:53:08;9;9;
73631;PMS5003;61924;53.268;-2.458;2023-02-07T00:55:33;8;8;
73631;PMS5003;61924;53.268;-2.458;2023-02-07T00:57:59;7;7;
73631;PMS5003;61924;53.268;-2.458;2023-02-07T01:00:25;8;8;
73631;PMS5003;61924;53.268;-2.458;2023-02-07T01:02:50;8;7;
73631;PMS5003;61924;53.268;-2.458;2023-02-07T01:05:15;8;8;
73631;PMS5003;61924;53.268;-2.458;2023-02-07T01:07:41;8;8;
73631;PMS5003;61924;53.268;-2.458;2023-02-07T01:10:07;9;8;
73631;PMS5003;61924;53.268;-2.458;2023-02-07T01:12:32;8;8;
73631;PMS5003;61924;53.268;-2.458;2023-02-07T01:14:58;8;8;
73631;PMS5003;61924;53.268;-2.458;2023-02-07T01:17:24;6;6;
73631;PMS5003;61924;53.268;-2.458;2023-02-07T01:19:49;8;7;
73631;PMS5003;61924;53.268;-2.458;2023-02-07T01:22:15;7;6;
73631;PMS5003;61924;53.268;-2.458;2023-02-07T01:24:40;6;6;
73631;PMS5003;61924;53.268;-2.458;2023-02-07T01:27:05;8;7;
73631;PMS5003;61924;53.268;-2.458;2023-02-07T01:29:30;9;8;
73631;PMS5003;61924;53.268;-2.458;2023-02-07T01:31:55;5;5;
73631;PMS5003;61924;53.268;-2.458;2023-02-07T01:34:20;8;7;
73631;PMS5003;61924;53.268;-2.458;2023-02-07T01:36:46;8;8;
73631;PMS5003;61924;53.268;-2.458;2023-02-07T01:39:11;8;7;
73631;PMS5003;61924;53.268;-2.458;2023-02-07T01:41:37;8;8;
73631;PMS5003;61924;53.268;-2.458;2023-02-07T01:44:04;7;6;
73631;PMS5003;61924;53.268;-2.458;2023-02-07T01:46:28;8;7;
73631;PMS5003;61924;53.268;-2.458;2023-02-07T01:48:53;6;6;
73631;PMS5003;61924;53.268;-2.458;2023-02-07T01:51:18;7;5;
73631;PMS5003;61924;53.268;-2.458;2023-02-07T01:53:44;5;5;
73631;PMS5003;61924;53.268;-2.458;2023-02-07T01:56:10;6;6;
73631;PMS5003;61924;53.268;-2.458;2023-02-07T01:58:34;7;7;
73631;PMS5003;61924;53.268;-2.458;2023-02-07T02:01:00;4;4;
73631;PMS5003;61924;53.268;-2.458;2023-02-07T02:03:26;8;6;
73631;PMS5003;61924;53.268;-2.458;2023-02-07T02:05:51;6;5;
73631;PMS5003;61924;53.268;-2.458;2023-02-07T02:08:17;5;5;
73631;PMS5003;61924;53.268;-2.458;2023-02-07T02:10:49;7;6;
73631;PMS5003;61924;53.268;-2.458;2023-02-07T02:13:13;5;5;
73631;PMS5003;61924;53.268;-2.458;2023-02-07T02:15:34;7;6;
73631;PMS5003;61924;53.268;-2.458;2023-02-07T02:18:01;7;6;
73631;PMS5003;61924;53.268;-2.458;2023-02-07T02:20:32;6;5;
73631;PMS5003;61924;53.268;-2.458;2023-02-07T02:22:54;6;6;
73631;PMS5003;61924;53.268;-2.458;2023-02-07T02:25:20;5;5;
73631;PMS5003;61924;53.268;-2.458;2023-02-07T02:27:47;4;4;
73631;PMS5003;61924;53.268;-2.458;2023-02-07T02:30:11;7;6;
73631;PMS5003;61924;53.268;-2.458;2023-02-07T02:32:38;7;4;
73631;PMS5003;61924;53.268;-2.458;2023-02-07T02:33:47;7;4;
73631;PMS5003;61924;53.268;-2.458;2023-02-07T02:36:16;3;3;
73631;PMS5003;61924;53.268;-2.458;2023-02-07T02:38:41;6;5;
73631;PMS5003;61924;53.268;-2.458;2023-02-07T02:41:05;5;5;
73631;PMS5003;61924;53.268;-2.458;2023-02-07T02:43:31;5;5;
73631;PMS5003;61924;53.268;-2.458;2023-02-07T02:45:56;5;5;
73631;PMS5003;61924;53.268;-2.458;2023-02-07T02:48:20;5;5;
73631;PMS5003;61924;53.268;-2.458;2023-02-07T02:50:47;4;4;
73631;PMS5003;61924;53.268;-2.458;2023-02-07T02:53:12;7;7;
73631;PMS5003;61924;53.268;-2.458;2023-02-07T02:55:42;4;4;
73631;PMS5003;61924;53.268;-2.458;2023-02-07T02:58:04;6;5;
73631;PMS5003;61924;53.268;-2.458;2023-02-07T03:00:36;5;5;
73631;PMS5003;61924;53.268;-2.458;2023-02-07T03:02:57;5;5;
73631;PMS5003;61924;53.268;-2.458;2023-02-07T03:05:23;4;4;
73631;PMS5003;61924;53.268;-2.458;2023-02-07T03:07:47;6;6;
73631;PMS5003;61924;53.268;-2.458;2023-02-07T03:10:12;5;5;
73631;PMS5003;61924;53.268;-2.458;2023-02-07T03:12:36;7;7;
73631;PMS5003;61924;53.268;-2.458;2023-02-07T03:15:01;3;3;
73631;PMS5003;61924;53.268;-2.458;2023-02-07T03:17:27;3;3;
73631;PMS5003;61924;53.268;-2.458;2023-02-07T03:19:52;6;6;
73631;PMS5003;61924;53.268;-2.458;2023-02-07T03:22:17;6;5;
73631;PMS5003;61924;53.268;-2.458;2023-02-07T03:24:43;4;4;
73631;PMS5003;61924;53.268;-2.458;2023-02-07T03:27:08;5;4;
73631;PMS5003;61924;53.268;-2.458;2023-02-07T03:29:33;6;6;
73631;PMS5003;61924;53.268;-2.458;2023-02-07T03:31:59;5;5;
73631;PMS5003;61924;53.268;-2.458;2023-02-07T03:34:23;3;3;
73631;PMS5003;61924;53.268;-2.458;2023-02-07T03:36:50;6;5;
73631;PMS5003;61924;53.268;-2.458;2023-02-07T03:39:14;5;5;
73631;PMS5003;61924;53.268;-2.458;2023-02-07T03:41:41;4;4;
73631;PMS5003;61924;53.268;-2.458;2023-02-07T03:44:05;5;4;
73631;PMS5003;61924;53.268;-2.458;2023-02-07T03:46:31;6;6;
73631;PMS5003;61924;53.268;-2.458;2023-02-07T03:48:56;6;4;
73631;PMS5003;61924;53.268;-2.458;2023-02-07T03:51:22;4;4;
73631;PMS5003;61924;53.268;-2.458;2023-02-07T03:53:47;4;4;
73631;PMS5003;61924;53.268;-2.458;2023-02-07T03:56:13;5;5;
73631;PMS5003;61924;53.268;-2.458;2023-02-07T03:58:38;3;3;
73631;PMS5003;61924;53.268;-2.458;2023-02-07T04:01:03;5;5;
73631;PMS5003;61924;53.268;-2.458;2023-02-07T04:03:29;4;4;
73631;PMS5003;61924;53.268;-2.458;2023-02-07T04:05:54;5;5;
73631;PMS5003;61924;53.268;-2.458;2023-02-07T04:08:20;6;6;
73631;PMS5003;61924;53.268;-2.458;2023-02-07T04:10:55;6;6;
73631;PMS5003;61924;53.268;-2.458;2023-02-07T04:13:10;4;4;
73631;PMS5003;61924;53.268;-2.458;2023-02-07T04:15:35;6;5;
73631;PMS5003;61924;53.268;-2.458;2023-02-07T04:18:01;5;5;
73631;PMS5003;61924;53.268;-2.458;2023-02-07T04:20:26;5;5;
73631;PMS5003;61924;53.268;-2.458;2023-02-07T04:22:51;3;3;
73631;PMS5003;61924;53.268;-2.458;2023-02-07T04:25:17;5;5;
73631;PMS5003;61924;53.268;-2.458;2023-02-07T04:27:42;5;4;
73631;PMS5003;61924;53.268;-2.458;2023-02-07T04:30:09;6;5;
73631;PMS5003;61924;53.268;-2.458;2023-02-07T04:32:33;5;5;
73631;PMS5003;61924;53.268;-2.458;2023-02-07T04:34:59;6;6;
73631;PMS5003;61924;53.268;-2.458;2023-02-07T04:37:24;6;6;
73631;PMS5003;61924;53.268;-2.458;2023-02-07T04:39:49;6;6;
73631;PMS5003;61924;53.268;-2.458;2023-02-07T04:42:15;5;5;
73631;PMS5003;61924;53.268;-2.458;2023-02-07T04:44:40;5;4;
73631;PMS5003;61924;53.268;-2.458;2023-02-07T04:47:05;6;6;
73631;PMS5003;61924;53.268;-2.458;2023-02-07T04:49:31;6;5;
73631;PMS5003;61924;53.268;-2.458;2023-02-07T04:51:56;7;6;
73631;PMS5003;61924;53.268;-2.458;2023-02-07T04:54:22;5;5;
73631;PMS5003;61924;53.268;-2.458;2023-02-07T04:56:47;4;4;
73631;PMS5003;61924;53.268;-2.458;2023-02-07T04:59:13;4;4;
73631;PMS5003;61924;53.268;-2.458;2023-02-07T05:01:38;5;5;
73631;PMS5003;61924;53.268;-2.458;2023-02-07T05:04:04;6;5;
73631;PMS5003;61924;53.268;-2.458;2023-02-07T05:06:29;5;5;
73631;PMS5003;61924;53.268;-2.458;2023-02-07T05:08:55;6;6;
73631;PMS5003;61924;53.268;-2.458;2023-02-07T05:11:21;3;3;
73631;PMS5003;61924;53.268;-2.458;2023-02-07T05:13:46;6;6;
73631;PMS5003;61924;53.268;-2.458;2023-02-07T05:16:11;5;5;
73631;PMS5003;61924;53.268;-2.458;2023-02-07T05:18:36;6;5;
73631;PMS5003;61924;53.268;-2.458;2023-02-07T05:21:02;8;8;
73631;PMS5003;61924;53.268;-2.458;2023-02-07T05:23:27;7;7;
73631;PMS5003;61924;53.268;-2.458;2023-02-07T05:25:52;8;8;
73631;PMS5003;61924;53.268;-2.458;2023-02-07T05:28:18;10;9;
73631;PMS5003;61924;53.268;-2.458;2023-02-07T05:30:44;12;11;
73631;PMS5003;61924;53.268;-2.458;2023-02-07T05:33:09;14;13;
73631;PMS5003;61924;53.268;-2.458;2023-02-07T05:35:35;17;17;
73631;PMS5003;61924;53.268;-2.458;2023-02-07T05:38:00;39;38;
73631;PMS5003;61924;53.268;-2.458;2023-02-07T05:40:26;76;71;
73631;PMS5003;61924;53.268;-2.458;2023-02-07T05:42:51;97;94;
73631;PMS5003;61924;53.268;-2.458;2023-02-07T05:45:16;119;112;
73631;PMS5003;61924;53.268;-2.458;2023-02-07T05:47:42;107;106;
73631;PMS5003;61924;53.268;-2.458;2023-02-07T05:50:08;118;111;
73631;PMS5003;61924;53.268;-2.458;2023-02-07T05:52:33;111;102;
73631;PMS5003;61924;53.268;-2.458;2023-02-07T05:54:58;98;93;
73631;PMS5003;61924;53.268;-2.458;2023-02-07T05:57:23;94;91;
73631;PMS5003;61924;53.268;-2.458;2023-02-07T05:59:48;98;92;
73631;PMS5003;61924;53.268;-2.458;2023-02-07T06:02:14;97;92;
73631;PMS5003;61924;53.268;-2.458;2023-02-07T06:04:39;86;84;
73631;PMS5003;61924;53.268;-2.458;2023-02-07T06:07:04;88;81;
73631;PMS5003;61924;53.268;-2.458;2023-02-07T06:09:30;78;75;
73631;PMS5003;61924;53.268;-2.458;2023-02-07T06:11:55;82;78;
73631;PMS5003;61924;53.268;-2.458;2023-02-07T06:14:20;85;81;
73631;PMS5003;61924;53.268;-2.458;2023-02-07T06:16:45;78;72;
73631;PMS5003;61924;53.268;-2.458;2023-02-07T06:19:11;70;66;
73631;PMS5003;61924;53.268;-2.458;2023-02-07T06:21:36;77;72;
73631;PMS5003;61924;53.268;-2.458;2023-02-07T06:24:02;68;63;
73631;PMS5003;61924;53.268;-2.458;2023-02-07T06:26:27;67;64;
73631;PMS5003;61924;53.268;-2.458;2023-02-07T06:28:53;66;63;
73631;PMS5003;61924;53.268;-2.458;2023-02-07T06:31:18;60;55;
73631;PMS5003;61924;53.268;-2.458;2023-02-07T06:33:43;64;61;
73631;PMS5003;61924;53.268;-2.458;2023-02-07T06:36:09;61;58;
73631;PMS5003;61924;53.268;-2.458;2023-02-07T06:38:34;54;51;
73631;PMS5003;61924;53.268;-2.458;2023-02-07T06:41:00;52;46;
73631;PMS5003;61924;53.268;-2.458;2023-02-07T06:43:25;53;51;
73631;PMS5003;61924;53.268;-2.458;2023-02-07T06:45:51;49;47;
73631;PMS5003;61924;53.268;-2.458;2023-02-07T06:48:16;50;47;
73631;PMS5003;61924;53.268;-2.458;2023-02-07T06:50:41;51;48;
73631;PMS5003;61924;53.268;-2.458;2023-02-07T06:53:07;45;42;
73631;PMS5003;61924;53.268;-2.458;2023-02-07T06:55:35;50;48;
73631;PMS5003;61924;53.268;-2.458;2023-02-07T06:57:58;45;42;
73631;PMS5003;61924;53.268;-2.458;2023-02-07T07:00:24;45;43;
73631;PMS5003;61924;53.268;-2.458;2023-02-07T07:02:49;46;43;
73631;PMS5003;61924;53.268;-2.458;2023-02-07T07:05:15;40;38;
73631;PMS5003;61924;53.268;-2.458;2023-02-07T07:07:41;40;38;
73631;PMS5003;61924;53.268;-2.458;2023-02-07T07:10:06;45;43;
73631;PMS5003;61924;53.268;-2.458;2023-02-07T07:12:32;39;36;
73631;PMS5003;61924;53.268;-2.458;2023-02-07T07:14:57;39;37;
73631;PMS5003;61924;53.268;-2.458;2023-02-07T07:17:22;35;33;
73631;PMS5003;61924;53.268;-2.458;2023-02-07T07:19:48;35;34;
73631;PMS5003;61924;53.268;-2.458;2023-02-07T07:22:13;37;35;
73631;PMS5003;61924;53.268;-2.458;2023-02-07T07:24:38;37;33;
73631;PMS5003;61924;53.268;-2.458;2023-02-07T07:27:04;31;31;
73631;PMS5003;61924;53.268;-2.458;2023-02-07T07:29:29;32;32;
73631;PMS5003;61924;53.268;-2.458;2023-02-07T07:31:54;30;29;
73631;PMS5003;61924;53.268;-2.458;2023-02-07T07:34:19;29;29;
73631;PMS5003;61924;53.268;-2.458;2023-02-07T07:36:44;34;30;
73631;PMS5003;61924;53.268;-2.458;2023-02-07T07:39:09;29;27;
73631;PMS5003;61924;53.268;-2.458;2023-02-07T07:41:35;32;31;
73631;PMS5003;61924;53.268;-2.458;2023-02-07T07:44:00;29;28;
73631;PMS5003;61924;53.268;-2.458;2023-02-07T07:46:26;26;25;
73631;PMS5003;61924;53.268;-2.458;2023-02-07T07:48:51;29;29;
73631;PMS5003;61924;53.268;-2.458;2023-02-07T07:51:16;29;29;
73631;PMS5003;61924;53.268;-2.458;2023-02-07T07:53:42;32;30;
73631;PMS5003;61924;53.268;-2.458;2023-02-07T07:56:07;28;27;
73631;PMS5003;61924;53.268;-2.458;2023-02-07T07:58:32;31;29;
73631;PMS5003;61924;53.268;-2.458;2023-02-07T08:00:58;26;24;
73631;PMS5003;61924;53.268;-2.458;2023-02-07T08:03:23;25;23;
73631;PMS5003;61924;53.268;-2.458;2023-02-07T08:05:49;28;27;
73631;PMS5003;61924;53.268;-2.458;2023-02-07T08:08:14;28;27;
73631;PMS5003;61924;53.268;-2.458;2023-02-07T08:10:39;22;22;
73631;PMS5003;61924;53.268;-2.458;2023-02-07T08:13:05;23;22;
73631;PMS5003;61924;53.268;-2.458;2023-02-07T08:15:30;26;25;
73631;PMS5003;61924;53.268;-2.458;2023-02-07T08:17:56;21;20;
73631;PMS5003;61924;53.268;-2.458;2023-02-07T08:20:21;22;21;
73631;PMS5003;61924;53.268;-2.458;2023-02-07T08:22:47;22;21;
73631;PMS5003;61924;53.268;-2.458;2023-02-07T08:25:12;21;21;
73631;PMS5003;61924;53.268;-2.458;2023-02-07T08:27:38;21;21;
73631;PMS5003;61924;53.268;-2.458;2023-02-07T08:30:04;30;28;
73631;PMS5003;61924;53.268;-2.458;2023-02-07T08:32:28;24;24;
73631;PMS5003;61924;53.268;-2.458;2023-02-07T08:34:54;25;25;
73631;PMS5003;61924;53.268;-2.458;2023-02-07T08:37:19;26;24;
73631;PMS5003;61924;53.268;-2.458;2023-02-07T08:39:44;25;24;
73631;PMS5003;61924;53.268;-2.458;2023-02-07T08:42:10;27;25;
73631;PMS5003;61924;53.268;-2.458;2023-02-07T08:44:35;23;21;
73631;PMS5003;61924;53.268;-2.458;2023-02-07T08:47:01;24;22;
73631;PMS5003;61924;53.268;-2.458;2023-02-07T08:49:27;20;19;
73631;PMS5003;61924;53.268;-2.458;2023-02-07T08:51:52;26;24;
73631;PMS5003;61924;53.268;-2.458;2023-02-07T08:54:17;20;20;
73631;PMS5003;61924;53.268;-2.458;2023-02-07T08:56:43;22;22;
73631;PMS5003;61924;53.268;-2.458;2023-02-07T08:59:08;22;20;
73631;PMS5003;61924;53.268;-2.458;2023-02-07T09:01:33;17;17;
73631;PMS5003;61924;53.268;-2.458;2023-02-07T09:03:59;21;21;
73631;PMS5003;61924;53.268;-2.458;2023-02-07T09:06:24;19;18;
73631;PMS5003;61924;53.268;-2.458;2023-02-07T09:08:49;22;21;
73631;PMS5003;61924;53.268;-2.458;2023-02-07T09:11:14;22;20;
73631;PMS5003;61924;53.268;-2.458;2023-02-07T09:13:40;20;20;
73631;PMS5003;61924;53.268;-2.458;2023-02-07T09:16:06;21;20;
73631;PMS5003;61924;53.268;-2.458;2023-02-07T09:18:31;18;18;
73631;PMS5003;61924;53.268;-2.458;2023-02-07T09:20:57;20;19;
73631;PMS5003;61924;53.268;-2.458;2023-02-07T09:23:22;20;19;
73631;PMS5003;61924;53.268;-2.458;2023-02-07T09:25:48;22;20;
73631;PMS5003;61924;53.268;-2.458;2023-02-07T09:28:12;18;18;
73631;PMS5003;61924;53.268;-2.458;2023-02-07T09:30:39;19;18;
73631;PMS5003;61924;53.268;-2.458;2023-02-07T09:33:04;19;15;
73631;PMS5003;61924;53.268;-2.458;2023-02-07T09:35:29;19;18;
73631;PMS5003;61924;53.268;-2.458;2023-02-07T09:37:55;21;20;
73631;PMS5003;61924;53.268;-2.458;2023-02-07T09:40:21;18;18;
73631;PMS5003;61924;53.268;-2.458;2023-02-07T09:42:49;17;17;
73631;PMS5003;61924;53.268;-2.458;2023-02-07T09:45:11;17;17;
73631;PMS5003;61924;53.268;-2.458;2023-02-07T09:47:37;16;16;
73631;PMS5003;61924;53.268;-2.458;2023-02-07T09:50:03;17;17;
73631;PMS5003;61924;53.268;-2.458;2023-02-07T09:52:28;17;17;
73631;PMS5003;61924;53.268;-2.458;2023-02-07T09:54:53;17;17;
73631;PMS5003;61924;53.268;-2.458;2023-02-07T09:57:19;18;17;
73631;PMS5003;61924;53.268;-2.458;2023-02-07T09:59:46;18;18;
73631;PMS5003;61924;53.268;-2.458;2023-02-07T10:02:13;21;19;
73631;PMS5003;61924;53.268;-2.458;2023-02-07T10:04:35;18;16;
73631;PMS5003;61924;53.268;-2.458;2023-02-07T10:06:59;21;21;
73631;PMS5003;61924;53.268;-2.458;2023-02-07T10:09:27;20;18;
73631;PMS5003;61924;53.268;-2.458;2023-02-07T10:11:52;22;21;
73631;PMS5003;61924;53.268;-2.458;2023-02-07T10:14:20;16;15;
73631;PMS5003;61924;53.268;-2.458;2023-02-07T10:16:45;16;15;
73631;PMS5003;61924;53.268;-2.458;2023-02-07T10:19:09;18;18;
73631;PMS5003;61924;53.268;-2.458;2023-02-07T10:21:33;18;17;
73631;PMS5003;61924;53.268;-2.458;2023-02-07T10:24:03;18;17;
73631;PMS5003;61924;53.268;-2.458;2023-02-07T10:26:26;18;17;
73631;PMS5003;61924;53.268;-2.458;2023-02-07T10:28:59;17;16;
73631;PMS5003;61924;53.268;-2.458;2023-02-07T10:31:14;16;15;
73631;PMS5003;61924;53.268;-2.458;2023-02-07T10:33:41;14;13;
73631;PMS5003;61924;53.268;-2.458;2023-02-07T10:36:06;17;16;
73631;PMS5003;61924;53.268;-2.458;2023-02-07T10:38:33;20;19;
73631;PMS5003;61924;53.268;-2.458;2023-02-07T10:40:58;18;18;
73631;PMS5003;61924;53.268;-2.458;2023-02-07T10:43:25;19;18;
73631;PMS5003;61924;53.268;-2.458;2023-02-07T10:45:46;16;16;
73631;PMS5003;61924;53.268;-2.458;2023-02-07T10:48:12;18;18;
73631;PMS5003;61924;53.268;-2.458;2023-02-07T10:50:37;15;15;
73631;PMS5003;61924;53.268;-2.458;2023-02-07T10:53:03;17;16;
73631;PMS5003;61924;53.268;-2.458;2023-02-07T10:55:38;17;16;
73631;PMS5003;61924;53.268;-2.458;2023-02-07T10:57:54;16;15;
73631;PMS5003;61924;53.268;-2.458;2023-02-07T11:00:22;16;16;
73631;PMS5003;61924;53.268;-2.458;2023-02-07T11:02:47;17;17;
73631;PMS5003;61924;53.268;-2.458;2023-02-07T11:06:15;15;15;
73631;PMS5003;61924;53.268;-2.458;2023-02-07T11:07:35;14;14;
73631;PMS5003;61924;53.268;-2.458;2023-02-07T11:10:17;13;12;
73631;PMS5003;61924;53.268;-2.458;2023-02-07T11:12:26;13;13;
73631;PMS5003;61924;53.268;-2.458;2023-02-07T11:14:58;15;14;
73631;PMS5003;61924;53.268;-2.458;2023-02-07T11:17:19;17;16;
73631;PMS5003;61924;53.268;-2.458;2023-02-07T11:19:43;17;17;
73631;PMS5003;61924;53.268;-2.458;2023-02-07T11:22:09;16;14;
73631;PMS5003;61924;53.268;-2.458;2023-02-07T11:24:34;12;12;
73631;PMS5003;61924;53.268;-2.458;2023-02-07T11:26:59;13;13;
73631;PMS5003;61924;53.268;-2.458;2023-02-07T11:29:24;11;11;
73631;PMS5003;61924;53.268;-2.458;2023-02-07T11:31:49;18;16;
73631;PMS5003;61924;53.268;-2.458;2023-02-07T11:34:46;15;15;
73631;PMS5003;61924;53.268;-2.458;2023-02-07T11:36:39;13;12;
73631;PMS5003;61924;53.268;-2.458;2023-02-07T11:39:13;17;17;
73631;PMS5003;61924;53.268;-2.458;2023-02-07T11:41:31;18;17;
73631;PMS5003;61924;53.268;-2.458;2023-02-07T11:43:57;13;12;
73631;PMS5003;61924;53.268;-2.458;2023-02-07T11:46:21;14;14;
73631;PMS5003;61924;53.268;-2.458;2023-02-07T11:48:47;14;13;
73631;PMS5003;61924;53.268;-2.458;2023-02-07T11:51:14;14;12;
73631;PMS5003;61924;53.268;-2.458;2023-02-07T11:53:38;18;17;
73631;PMS5003;61924;53.268;-2.458;2023-02-07T11:56:03;13;13;
73631;PMS5003;61924;53.268;-2.458;2023-02-07T11:58:30;13;13;
73631;PMS5003;61924;53.268;-2.458;2023-02-07T12:00:53;15;15;
73631;PMS5003;61924;53.268;-2.458;2023-02-07T12:03:20;15;13;
73631;PMS5003;61924;53.268;-2.458;2023-02-07T12:05:44;12;12;
73631;PMS5003;61924;53.268;-2.458;2023-02-07T12:08:10;13;13;
73631;PMS5003;61924;53.268;-2.458;2023-02-07T12:10:35;12;12;
73631;PMS5003;61924;53.268;-2.458;2023-02-07T12:13:02;15;14;
73631;PMS5003;61924;53.268;-2.458;2023-02-07T12:15:27;12;12;
73631;PMS5003;61924;53.268;-2.458;2023-02-07T12:17:53;13;12;
73631;PMS5003;61924;53.268;-2.458;2023-02-07T12:20:19;12;12;
73631;PMS5003;61924;53.268;-2.458;2023-02-07T12:22:43;13;12;
73631;PMS5003;61924;53.268;-2.458;2023-02-07T12:25:10;13;13;
73631;PMS5003;61924;53.268;-2.458;2023-02-07T12:27:34;13;13;
73631;PMS5003;61924;53.268;-2.458;2023-02-07T12:30:01;15;15;
73631;PMS5003;61924;53.268;-2.458;2023-02-07T12:32:27;17;16;
73631;PMS5003;61924;53.268;-2.458;2023-02-07T12:34:51;14;13;
73631;PMS5003;61924;53.268;-2.458;2023-02-07T12:37:17;14;14;
73631;PMS5003;61924;53.268;-2.458;2023-02-07T12:39:42;10;10;
73631;PMS5003;61924;53.268;-2.458;2023-02-07T12:42:11;14;14;
73631;PMS5003;61924;53.268;-2.458;2023-02-07T12:44:32;11;11;
73631;PMS5003;61924;53.268;-2.458;2023-02-07T12:46:58;12;11;
73631;PMS5003;61924;53.268;-2.458;2023-02-07T12:49:26;11;10;
73631;PMS5003;61924;53.268;-2.458;2023-02-07T12:51:50;12;12;
73631;PMS5003;61924;53.268;-2.458;2023-02-07T12:54:16;12;11;
73631;PMS5003;61924;53.268;-2.458;2023-02-07T12:56:41;11;11;
73631;PMS5003;61924;53.268;-2.458;2023-02-07T12:59:08;11;11;
73631;PMS5003;61924;53.268;-2.458;2023-02-07T13:01:31;11;10;
73631;PMS5003;61924;53.268;-2.458;2023-02-07T13:03:59;11;10;
73631;PMS5003;61924;53.268;-2.458;2023-02-07T13:06:21;12;12;
73631;PMS5003;61924;53.268;-2.458;2023-02-07T13:08:48;14;13;
73631;PMS5003;61924;53.268;-2.458;2023-02-07T13:11:14;11;11;
73631;PMS5003;61924;53.268;-2.458;2023-02-07T13:13:39;12;12;
73631;PMS5003;61924;53.268;-2.458;2023-02-07T13:16:03;13;12;
73631;PMS5003;61924;53.268;-2.458;2023-02-07T13:18:30;10;10;
73631;PMS5003;61924;53.268;-2.458;2023-02-07T13:20:56;11;11;
73631;PMS5003;61924;53.268;-2.458;2023-02-07T13:23:19;12;11;
73631;PMS5003;61924;53.268;-2.458;2023-02-07T13:25:45;12;11;
73631;PMS5003;61924;53.268;-2.458;2023-02-07T13:28:11;11;11;
73631;PMS5003;61924;53.268;-2.458;2023-02-07T13:30:34;11;11;
73631;PMS5003;61924;53.268;-2.458;2023-02-07T13:33:02;11;11;
73631;PMS5003;61924;53.268;-2.458;2023-02-07T13:35:25;12;12;
73631;PMS5003;61924;53.268;-2.458;2023-02-07T13:37:52;8;8;
73631;PMS5003;61924;53.268;-2.458;2023-02-07T13:40:19;15;13;
73631;PMS5003;61924;53.268;-2.458;2023-02-07T13:42:42;11;11;
73631;PMS5003;61924;53.268;-2.458;2023-02-07T13:45:09;13;12;
73631;PMS5003;61924;53.268;-2.458;2023-02-07T13:47:34;11;10;
73631;PMS5003;61924;53.268;-2.458;2023-02-07T13:49:57;12;11;
73631;PMS5003;61924;53.268;-2.458;2023-02-07T13:52:22;12;11;
73631;PMS5003;61924;53.268;-2.458;2023-02-07T13:54:50;10;10;
73631;PMS5003;61924;53.268;-2.458;2023-02-07T13:57:18;14;14;
73631;PMS5003;61924;53.268;-2.458;2023-02-07T13:59:38;10;10;
73631;PMS5003;61924;53.268;-2.458;2023-02-07T14:02:03;13;13;
73631;PMS5003;61924;53.268;-2.458;2023-02-07T14:04:27;11;11;
73631;PMS5003;61924;53.268;-2.458;2023-02-07T14:06:55;14;13;
73631;PMS5003;61924;53.268;-2.458;2023-02-07T14:09:21;11;11;
73631;PMS5003;61924;53.268;-2.458;2023-02-07T14:11:45;12;12;
73631;PMS5003;61924;53.268;-2.458;2023-02-07T14:14:13;11;10;
73631;PMS5003;61924;53.268;-2.458;2023-02-07T14:16:45;10;10;
73631;PMS5003;61924;53.268;-2.458;2023-02-07T14:19:01;9;9;
73631;PMS5003;61924;53.268;-2.458;2023-02-07T14:21:28;10;10;
73631;PMS5003;61924;53.268;-2.458;2023-02-07T14:23:58;11;10;
73631;PMS5003;61924;53.268;-2.458;2023-02-07T14:26:50;11;11;
73631;PMS5003;61924;53.268;-2.458;2023-02-07T14:28:41;9;9;
73631;PMS5003;61924;53.268;-2.458;2023-02-07T14:31:10;10;9;
73631;PMS5003;61924;53.268;-2.458;2023-02-07T14:33:32;11;10;
73631;PMS5003;61924;53.268;-2.458;2023-02-07T14:36:02;8;8;
73631;PMS5003;61924;53.268;-2.458;2023-02-07T14:38:26;10;10;
73631;PMS5003;61924;53.268;-2.458;2023-02-07T14:40:50;9;9;
73631;PMS5003;61924;53.268;-2.458;2023-02-07T14:43:15;10;9;
73631;PMS5003;61924;53.268;-2.458;2023-02-07T14:45:42;9;8;
73631;PMS5003;61924;53.268;-2.458;2023-02-07T14:48:06;12;11;
73631;PMS5003;61924;53.268;-2.458;2023-02-07T14:50:30;11;11;
73631;PMS5003;61924;53.268;-2.458;2023-02-07T14:52:56;10;10;
73631;PMS5003;61924;53.268;-2.458;2023-02-07T14:55:23;10;10;
73631;PMS5003;61924;53.268;-2.458;2023-02-07T14:57:48;10;10;
73631;PMS5003;61924;53.268;-2.458;2023-02-07T15:00:17;11;10;
73631;PMS5003;61924;53.268;-2.458;2023-02-07T15:02:38;11;11;
73631;PMS5003;61924;53.268;-2.458;2023-02-07T15:05:14;9;9;
73631;PMS5003;61924;53.268;-2.458;2023-02-07T15:07:29;10;10;
73631;PMS5003;61924;53.268;-2.458;2023-02-07T15:09:54;8;7;
73631;PMS5003;61924;53.268;-2.458;2023-02-07T15:12:22;7;7;
73631;PMS5003;61924;53.268;-2.458;2023-02-07T15:14:45;11;10;
73631;PMS5003;61924;53.268;-2.458;2023-02-07T15:17:11;9;9;
73631;PMS5003;61924;53.268;-2.458;2023-02-07T15:19:38;7;7;
73631;PMS5003;61924;53.268;-2.458;2023-02-07T15:22:02;10;10;
73631;PMS5003;61924;53.268;-2.458;2023-02-07T15:24:29;10;10;
73631;PMS5003;61924;53.268;-2.458;2023-02-07T15:26:54;8;8;
73631;PMS5003;61924;53.268;-2.458;2023-02-07T15:29:19;8;8;
73631;PMS5003;61924;53.268;-2.458;2023-02-07T15:31:44;9;9;
73631;PMS5003;61924;53.268;-2.458;2023-02-07T15:34:11;9;9;
73631;PMS5003;61924;53.268;-2.458;2023-02-07T15:36:35;9;9;
73631;PMS5003;61924;53.268;-2.458;2023-02-07T15:39:01;9;9;
73631;PMS5003;61924;53.268;-2.458;2023-02-07T15:41:25;8;8;
73631;PMS5003;61924;53.268;-2.458;2023-02-07T15:43:52;9;9;
73631;PMS5003;61924;53.268;-2.458;2023-02-07T15:46:16;10;10;
73631;PMS5003;61924;53.268;-2.458;2023-02-07T15:48:46;10;10;
73631;PMS5003;61924;53.268;-2.458;2023-02-07T15:51:08;9;9;
73631;PMS5003;61924;53.268;-2.458;2023-02-07T15:53:32;9;7;
73631;PMS5003;61924;53.268;-2.458;2023-02-07T15:55:58;10;10;
73631;PMS5003;61924;53.268;-2.458;2023-02-07T15:58:25;10;10;